EGKK/LGW METAR and TAF weather

Enter ICAO airport designator
Station Type Date Time Source
EGKK METAR 2020/03/29 12:20 UTC NOAA

EGKK 291220Z 03014KT 9999 FEW012 06/03 Q1037


Station Type Date Time Source
EGKK Decoded METAR 2020/03/29 12:20 UTC NOAA

London / Gatwick Airport, United Kingdom (EGKK) 51-09N 000-11W 0M
Mar 29, 2020 - 08:20 AM EDT / 2020.03.29 1220 UTC
Wind: from the NNE (030 degrees) at 16 MPH (14 KT):0
Visibility: greater than 7 mile(s):0
Sky conditions: mostly clear
Temperature: 42 F (6 C)
Dew Point: 37 F (3 C)
Relative Humidity: 81%
Pressure (altimeter): 30.62 in. Hg (1037 hPa)
ob: EGKK 291220Z 03014KT 9999 FEW012 06/03 Q1037
cycle: 12

Station Type Date Time Source
EGKK TAF 2020/03/29 12:09 UTC NOAA

TAF EGKK 291058Z 2912/3018 02020G32KT 9999 SCT030
TEMPO 2912/2917 6000 SHRA
BECMG 2919/2922 02008KT
TEMPO 3006/3018 6000 SHRA BKN012 PROB40
TEMPO 3009/3017 03015G25KT

Example: see airport list